sensor_id;sensor_type;location;lat;lon;timestamp;pressure;altitude;pressure_sealevel;temperature;humidity
78675;BME280;67990;59.826;30.108;2023-03-11T00:02:17;100820.78;;;-12.46;62.28
78675;BME280;67990;59.826;30.108;2023-03-11T00:04:44;100819.06;;;-12.50;60.84
78675;BME280;67990;59.826;30.108;2023-03-11T00:07:12;100818.94;;;-12.69;59.42
78675;BME280;67990;59.826;30.108;2023-03-11T00:09:39;100809.50;;;-12.90;59.14
78675;BME280;67990;59.826;30.108;2023-03-11T00:12:06;100811.09;;;-13.07;63.03
78675;BME280;67990;59.826;30.108;2023-03-11T00:14:35;100812.06;;;-12.87;63.58
78675;BME280;67990;59.826;30.108;2023-03-11T00:17:02;100815.47;;;-12.82;65.24
78675;BME280;67990;59.826;30.108;2023-03-11T00:19:29;100808.91;;;-12.54;64.94
78675;BME280;67990;59.826;30.108;2023-03-11T00:21:56;100808.16;;;-12.43;64.00
78675;BME280;67990;59.826;30.108;2023-03-11T00:24:23;100814.91;;;-12.40;63.67
78675;BME280;67990;59.826;30.108;2023-03-11T00:26:51;100813.22;;;-12.37;63.87
78675;BME280;67990;59.826;30.108;2023-03-11T00:29:17;100805.66;;;-12.34;63.93
78675;BME280;67990;59.826;30.108;2023-03-11T00:31:46;100804.84;;;-12.28;63.74
78675;BME280;67990;59.826;30.108;2023-03-11T00:34:13;100809.06;;;-12.33;63.81
78675;BME280;67990;59.826;30.108;2023-03-11T00:36:40;100802.06;;;-12.73;64.97
78675;BME280;67990;59.826;30.108;2023-03-11T00:39:07;100799.50;;;-12.81;65.78
78675;BME280;67990;59.826;30.108;2023-03-11T00:41:36;100800.38;;;-12.70;65.32
78675;BME280;67990;59.826;30.108;2023-03-11T00:44:03;100804.44;;;-12.99;65.57
78675;BME280;67990;59.826;30.108;2023-03-11T00:46:30;100807.13;;;-12.73;65.25
78675;BME280;67990;59.826;30.108;2023-03-11T00:48:59;100806.97;;;-12.99;65.61
78675;BME280;67990;59.826;30.108;2023-03-11T00:51:26;100814.59;;;-12.88;65.48
78675;BME280;67990;59.826;30.108;2023-03-11T00:53:54;100801.94;;;-12.90;64.61
78675;BME280;67990;59.826;30.108;2023-03-11T00:56:21;100804.50;;;-12.84;63.89
78675;BME280;67990;59.826;30.108;2023-03-11T00:58:48;100805.31;;;-12.97;64.06
78675;BME280;67990;59.826;30.108;2023-03-11T01:01:17;100806.19;;;-12.89;64.00
78675;BME280;67990;59.826;30.108;2023-03-11T01:03:45;100801.97;;;-12.87;63.09
78675;BME280;67990;59.826;30.108;2023-03-11T01:06:14;100796.00;;;-12.98;63.56
78675;BME280;67990;59.826;30.108;2023-03-11T01:08:41;100802.78;;;-12.97;62.84
78675;BME280;67990;59.826;30.108;2023-03-11T01:11:09;100781.69;;;-12.96;61.52
78675;BME280;67990;59.826;30.108;2023-03-11T01:13:37;100790.84;;;-13.13;61.04
78675;BME280;67990;59.826;30.108;2023-03-11T01:16:05;100793.22;;;-13.31;61.58
78675;BME280;67990;59.826;30.108;2023-03-11T01:18:34;100777.13;;;-13.39;61.30
78675;BME280;67990;59.826;30.108;2023-03-11T01:21:01;100787.19;;;-13.47;61.04
78675;BME280;67990;59.826;30.108;2023-03-11T01:23:29;100783.72;;;-13.56;62.83
78675;BME280;67990;59.826;30.108;2023-03-11T01:25:57;100792.13;;;-13.57;63.11
78675;BME280;67990;59.826;30.108;2023-03-11T01:28:25;100783.69;;;-13.62;64.35
78675;BME280;67990;59.826;30.108;2023-03-11T01:30:52;100769.31;;;-13.68;64.22
78675;BME280;67990;59.826;30.108;2023-03-11T01:33:20;100787.09;;;-13.57;64.51
78675;BME280;67990;59.826;30.108;2023-03-11T01:35:47;100784.47;;;-13.68;65.88
78675;BME280;67990;59.826;30.108;2023-03-11T01:38:15;100780.97;;;-13.80;66.55
78675;BME280;67990;59.826;30.108;2023-03-11T01:40:46;100780.88;;;-13.88;67.31
78675;BME280;67990;59.826;30.108;2023-03-11T01:46:20;100780.88;;;-13.88;68.40
78675;BME280;67990;59.826;30.108;2023-03-11T01:48:49;100784.88;;;-14.09;69.53
78675;BME280;67990;59.826;30.108;2023-03-11T01:51:18;100774.00;;;-14.01;70.02
78675;BME280;67990;59.826;30.108;2023-03-11T01:53:47;100775.00;;;-13.88;70.50
78675;BME280;67990;59.826;30.108;2023-03-11T01:56:16;100770.91;;;-13.76;69.98
78675;BME280;67990;59.826;30.108;2023-03-11T01:58:46;100759.94;;;-13.79;70.13
78675;BME280;67990;59.826;30.108;2023-03-11T02:01:15;100759.09;;;-13.80;70.46
78675;BME280;67990;59.826;30.108;2023-03-11T02:03:42;100770.81;;;-13.86;70.22
78675;BME280;67990;59.826;30.108;2023-03-11T02:06:11;100755.69;;;-13.85;70.77
78675;BME280;67990;59.826;30.108;2023-03-11T02:08:41;100767.53;;;-13.78;70.80
78675;BME280;67990;59.826;30.108;2023-03-11T02:11:16;100762.69;;;-13.57;70.23
78675;BME280;67990;59.826;30.108;2023-03-11T02:13:45;100770.91;;;-13.76;69.67
78675;BME280;67990;59.826;30.108;2023-03-11T02:16:13;100767.38;;;-13.93;70.79
78675;BME280;67990;59.826;30.108;2023-03-11T02:18:41;100774.75;;;-14.11;71.60
78675;BME280;67990;59.826;30.108;2023-03-11T02:21:17;100769.56;;;-14.20;72.50
78675;BME280;67990;59.826;30.108;2023-03-11T02:23:54;100764.53;;;-14.20;72.88
78675;BME280;67990;59.826;30.108;2023-03-11T02:26:26;100768.66;;;-14.31;73.11
78675;BME280;67990;59.826;30.108;2023-03-11T02:28:59;100761.81;;;-14.39;73.09
78675;BME280;67990;59.826;30.108;2023-03-11T02:31:27;100765.19;;;-14.39;73.24
78675;BME280;67990;59.826;30.108;2023-03-11T02:33:56;100768.72;;;-14.25;72.89
78675;BME280;67990;59.826;30.108;2023-03-11T02:36:34;100779.63;;;-14.27;72.72
78675;BME280;67990;59.826;30.108;2023-03-11T02:39:03;100773.47;;;-14.47;73.47
78675;BME280;67990;59.826;30.108;2023-03-11T02:41:32;100778.47;;;-14.52;73.15
78675;BME280;67990;59.826;30.108;2023-03-11T02:44:04;100777.81;;;-14.37;72.87
78675;BME280;67990;59.826;30.108;2023-03-11T02:46:33;100778.59;;;-14.43;72.45
78675;BME280;67990;59.826;30.108;2023-03-11T02:49:02;100774.97;;;-14.63;73.17
78675;BME280;67990;59.826;30.108;2023-03-11T02:51:31;100758.22;;;-14.58;73.24
78675;BME280;67990;59.826;30.108;2023-03-11T02:54:03;100754.00;;;-14.59;72.84
78675;BME280;67990;59.826;30.108;2023-03-11T02:56:32;100757.91;;;-14.80;73.40
78675;BME280;67990;59.826;30.108;2023-03-11T02:58:59;100753.78;;;-14.77;73.85
78675;BME280;67990;59.826;30.108;2023-03-11T03:01:29;100753.44;;;-14.99;74.13
78675;BME280;67990;59.826;30.108;2023-03-11T03:03:57;100755.44;;;-14.77;74.02
78675;BME280;67990;59.826;30.108;2023-03-11T03:06:25;100752.66;;;-14.97;73.85
78675;BME280;67990;59.826;30.108;2023-03-11T03:08:53;100740.88;;;-14.96;73.81
78675;BME280;67990;59.826;30.108;2023-03-11T03:11:20;100745.75;;;-15.10;73.94
78675;BME280;67990;59.826;30.108;2023-03-11T03:13:48;100742.44;;;-15.06;74.34
78675;BME280;67990;59.826;30.108;2023-03-11T03:16:15;100736.91;;;-14.81;73.70
78675;BME280;67990;59.826;30.108;2023-03-11T03:18:44;100743.19;;;-14.49;72.22
78675;BME280;67990;59.826;30.108;2023-03-11T03:21:11;100731.63;;;-14.97;73.02
78675;BME280;67990;59.826;30.108;2023-03-11T03:23:38;100729.13;;;-14.97;73.14
78675;BME280;67990;59.826;30.108;2023-03-11T03:26:05;100732.38;;;-15.06;73.63
78675;BME280;67990;59.826;30.108;2023-03-11T03:28:36;100719.00;;;-15.02;73.75
78675;BME280;67990;59.826;30.108;2023-03-11T03:31:06;100714.50;;;-15.21;73.77
78675;BME280;67990;59.826;30.108;2023-03-11T03:33:35;100713.56;;;-15.27;74.71
78675;BME280;67990;59.826;30.108;2023-03-11T03:36:08;100713.50;;;-15.35;74.42
78675;BME280;67990;59.826;30.108;2023-03-11T03:38:52;100715.38;;;-15.17;74.55
78675;BME280;67990;59.826;30.108;2023-03-11T03:41:20;100702.03;;;-15.12;73.95
78675;BME280;67990;59.826;30.108;2023-03-11T03:43:48;100696.97;;;-15.15;73.76
78675;BME280;67990;59.826;30.108;2023-03-11T03:46:16;100695.31;;;-15.13;73.63
78675;BME280;67990;59.826;30.108;2023-03-11T03:48:46;100690.75;;;-15.41;74.03
78675;BME280;67990;59.826;30.108;2023-03-11T03:51:15;100693.31;;;-15.38;74.16
78675;BME280;67990;59.826;30.108;2023-03-11T03:54:03;100674.03;;;-15.36;73.76
78675;BME280;67990;59.826;30.108;2023-03-11T03:56:30;100694.69;;;-14.98;73.79
78675;BME280;67990;59.826;30.108;2023-03-11T03:58:59;100683.63;;;-14.41;72.21
78675;BME280;67990;59.826;30.108;2023-03-11T04:01:32;100703.13;;;-14.28;70.27
78675;BME280;67990;59.826;30.108;2023-03-11T04:03:59;100701.63;;;-14.06;69.13
78675;BME280;67990;59.826;30.108;2023-03-11T04:06:28;100691.59;;;-13.97;68.25
78675;BME280;67990;59.826;30.108;2023-03-11T04:09:00;100696.75;;;-14.70;69.15
78675;BME280;67990;59.826;30.108;2023-03-11T04:11:31;100686.97;;;-15.10;71.16
78675;BME280;67990;59.826;30.108;2023-03-11T04:14:00;100698.38;;;-14.72;71.11
78675;BME280;67990;59.826;30.108;2023-03-11T04:16:28;100683.44;;;-14.57;70.34
78675;BME280;67990;59.826;30.108;2023-03-11T04:19:03;100638.91;;;-15.25;70.87
78675;BME280;67990;59.826;30.108;2023-03-11T04:21:32;100697.28;;;-14.92;71.29
78675;BME280;67990;59.826;30.108;2023-03-11T04:24:00;100690.69;;;-14.83;71.38
78675;BME280;67990;59.826;30.108;2023-03-11T04:26:32;100690.16;;;-15.22;71.96
78675;BME280;67990;59.826;30.108;2023-03-11T04:28:59;100691.00;;;-15.23;72.35
78675;BME280;67990;59.826;30.108;2023-03-11T04:31:29;100676.63;;;-15.28;72.19
78675;BME280;67990;59.826;30.108;2023-03-11T04:33:59;100677.41;;;-15.32;73.09
78675;BME280;67990;59.826;30.108;2023-03-11T04:36:26;100686.06;;;-15.15;72.78
78675;BME280;67990;59.826;30.108;2023-03-11T04:38:56;100680.19;;;-15.14;72.63
78675;BME280;67990;59.826;30.108;2023-03-11T04:41:24;100619.31;;;-15.47;72.08
78675;BME280;67990;59.826;30.108;2023-03-11T04:43:52;100668.53;;;-15.06;71.83
78675;BME280;67990;59.826;30.108;2023-03-11T04:46:20;100682.81;;;-15.08;71.78
78675;BME280;67990;59.826;30.108;2023-03-11T04:48:48;100668.41;;;-15.17;72.59
78675;BME280;67990;59.826;30.108;2023-03-11T04:51:15;100683.66;;;-14.38;71.18
78675;BME280;67990;59.826;30.108;2023-03-11T04:53:42;100678.28;;;-13.83;69.70
78675;BME280;67990;59.826;30.108;2023-03-11T04:56:11;100661.09;;;-14.27;68.33
78675;BME280;67990;59.826;30.108;2023-03-11T04:58:39;100598.78;;;-14.39;68.64
78675;BME280;67990;59.826;30.108;2023-03-11T05:01:06;100650.91;;;-14.36;68.27
78675;BME280;67990;59.826;30.108;2023-03-11T05:03:34;100651.13;;;-14.12;68.44
78675;BME280;67990;59.826;30.108;2023-03-11T05:06:01;100642.16;;;-13.80;67.95
78675;BME280;67990;59.826;30.108;2023-03-11T05:08:29;100649.00;;;-13.64;67.47
78675;BME280;67990;59.826;30.108;2023-03-11T05:10:56;100658.59;;;-13.15;66.46
78675;BME280;67990;59.826;30.108;2023-03-11T05:13:25;100670.63;;;-12.64;64.13
78675;BME280;67990;59.826;30.108;2023-03-11T05:15:52;100654.44;;;-13.04;63.51
78675;BME280;67990;59.826;30.108;2023-03-11T05:18:20;100643.13;;;-13.65;65.22
78675;BME280;67990;59.826;30.108;2023-03-11T05:20:48;100658.06;;;-13.89;66.29
78675;BME280;67990;59.826;30.108;2023-03-11T05:23:17;100621.03;;;-13.91;67.20
78675;BME280;67990;59.826;30.108;2023-03-11T05:25:44;100627.56;;;-14.13;67.07
78675;BME280;67990;59.826;30.108;2023-03-11T05:28:12;100624.00;;;-14.37;68.23
78675;BME280;67990;59.826;30.108;2023-03-11T05:30:46;100567.34;;;-14.72;68.78
78675;BME280;67990;59.826;30.108;2023-03-11T05:33:14;100582.81;;;-14.36;69.12
78675;BME280;67990;59.826;30.108;2023-03-11T05:35:41;100607.34;;;-14.16;69.18
78675;BME280;67990;59.826;30.108;2023-03-11T05:38:09;100612.47;;;-14.08;69.20
78675;BME280;67990;59.826;30.108;2023-03-11T05:40:36;100615.34;;;-13.66;68.72
78675;BME280;67990;59.826;30.108;2023-03-11T05:43:04;100616.19;;;-13.61;68.06
78675;BME280;67990;59.826;30.108;2023-03-11T05:45:35;100611.81;;;-13.86;67.91
78675;BME280;67990;59.826;30.108;2023-03-11T05:48:03;100610.31;;;-13.59;68.07
78675;BME280;67990;59.826;30.108;2023-03-11T05:50:31;100599.34;;;-13.64;67.99
78675;BME280;67990;59.826;30.108;2023-03-11T05:52:59;100600.91;;;-13.82;68.04
78675;BME280;67990;59.826;30.108;2023-03-11T05:55:29;100595.97;;;-13.67;68.19
78675;BME280;67990;59.826;30.108;2023-03-11T05:57:56;100607.03;;;-13.49;67.92
78675;BME280;67990;59.826;30.108;2023-03-11T06:00:23;100592.78;;;-13.36;67.65
78675;BME280;67990;59.826;30.108;2023-03-11T06:02:56;100599.56;;;-13.32;67.14
78675;BME280;67990;59.826;30.108;2023-03-11T06:05:24;100590.38;;;-13.15;67.25
78675;BME280;67990;59.826;30.108;2023-03-11T06:07:53;100589.56;;;-13.14;67.04
78675;BME280;67990;59.826;30.108;2023-03-11T06:10:21;100589.53;;;-13.15;66.88
78675;BME280;67990;59.826;30.108;2023-03-11T06:12:49;100586.22;;;-13.04;67.11
78675;BME280;67990;59.826;30.108;2023-03-11T06:15:28;100584.53;;;-12.90;66.70
78675;BME280;67990;59.826;30.108;2023-03-11T06:17:56;100579.59;;;-12.63;66.85
78675;BME280;67990;59.826;30.108;2023-03-11T06:20:26;100571.19;;;-12.57;65.87
78675;BME280;67990;59.826;30.108;2023-03-11T06:22:55;100577.97;;;-12.22;65.13
78675;BME280;67990;59.826;30.108;2023-03-11T06:25:23;100583.03;;;-11.66;63.93
78675;BME280;67990;59.826;30.108;2023-03-11T06:27:53;100559.34;;;-11.53;62.98
78675;BME280;67990;59.826;30.108;2023-03-11T06:30:23;100552.47;;;-11.17;62.25
78675;BME280;67990;59.826;30.108;2023-03-11T06:33:00;100557.97;;;-10.37;60.27
78675;BME280;67990;59.826;30.108;2023-03-11T06:35:28;100557.94;;;-10.32;59.26
78675;BME280;67990;59.826;30.108;2023-03-11T06:37:56;100555.66;;;-10.77;58.83
78675;BME280;67990;59.826;30.108;2023-03-11T06:40:23;100555.53;;;-10.47;58.78
78675;BME280;67990;59.826;30.108;2023-03-11T06:42:51;100540.88;;;-10.17;58.15
78675;BME280;67990;59.826;30.108;2023-03-11T06:45:20;100537.41;;;-10.04;57.70
78675;BME280;67990;59.826;30.108;2023-03-11T06:47:48;100533.09;;;-9.99;56.70
78675;BME280;67990;59.826;30.108;2023-03-11T06:50:15;100534.59;;;-9.77;56.44
78675;BME280;67990;59.826;30.108;2023-03-11T06:52:44;100522.50;;;-9.52;56.63
78675;BME280;67990;59.826;30.108;2023-03-11T06:55:11;100523.69;;;-9.08;55.27
78675;BME280;67990;59.826;30.108;2023-03-11T06:57:39;100514.03;;;-8.24;53.09
78675;BME280;67990;59.826;30.108;2023-03-11T07:00:09;100512.47;;;-7.86;51.42
78675;BME280;67990;59.826;30.108;2023-03-11T07:02:40;100509.88;;;-7.83;50.01
78675;BME280;67990;59.826;30.108;2023-03-11T07:05:08;100500.44;;;-7.78;50.37
78675;BME280;67990;59.826;30.108;2023-03-11T07:07:37;100492.34;;;-7.10;48.76
78675;BME280;67990;59.826;30.108;2023-03-11T07:10:06;100494.88;;;-7.52;48.85
78675;BME280;67990;59.826;30.108;2023-03-11T07:12:34;100479.44;;;-6.28;47.95
78675;BME280;67990;59.826;30.108;2023-03-11T07:15:02;100472.38;;;-6.18;46.35
78675;BME280;67990;59.826;30.108;2023-03-11T07:17:31;100463.00;;;-5.84;44.91
78675;BME280;67990;59.826;30.108;2023-03-11T07:19:58;100456.53;;;-4.50;42.32
78675;BME280;67990;59.826;30.108;2023-03-11T07:22:26;100454.00;;;-4.00;41.34
78675;BME280;67990;59.826;30.108;2023-03-11T07:24:53;100455.91;;;-4.05;41.54
78675;BME280;67990;59.826;30.108;2023-03-11T07:27:21;100444.69;;;-4.02;40.20
78675;BME280;67990;59.826;30.108;2023-03-11T07:29:48;100444.84;;;-3.58;40.88
78675;BME280;67990;59.826;30.108;2023-03-11T07:32:15;100464.41;;;-4.56;41.07
78675;BME280;67990;59.826;30.108;2023-03-11T07:34:42;100446.59;;;-3.35;39.10
78675;BME280;67990;59.826;30.108;2023-03-11T07:37:10;100438.44;;;-2.56;38.51
78675;BME280;67990;59.826;30.108;2023-03-11T07:39:38;100434.44;;;-2.84;39.36
78675;BME280;67990;59.826;30.108;2023-03-11T07:42:05;100434.63;;;-4.60;40.29
78675;BME280;67990;59.826;30.108;2023-03-11T07:44:35;100440.03;;;-4.69;42.65
78675;BME280;67990;59.826;30.108;2023-03-11T07:47:03;100433.63;;;-6.72;44.87
78675;BME280;67990;59.826;30.108;2023-03-11T07:49:30;100423.63;;;-6.81;46.55
78675;BME280;67990;59.826;30.108;2023-03-11T07:51:58;100421.66;;;-7.06;47.82
78675;BME280;67990;59.826;30.108;2023-03-11T07:54:25;100405.69;;;-6.43;46.37
78675;BME280;67990;59.826;30.108;2023-03-11T07:56:52;100413.91;;;-6.65;47.28
78675;BME280;67990;59.826;30.108;2023-03-11T07:59:19;100405.97;;;-6.19;45.72
78675;BME280;67990;59.826;30.108;2023-03-11T08:01:48;100402.91;;;-6.34;46.37
78675;BME280;67990;59.826;30.108;2023-03-11T08:04:15;100404.78;;;-6.06;46.70
78675;BME280;67990;59.826;30.108;2023-03-11T08:06:44;100395.78;;;-6.55;46.91
78675;BME280;67990;59.826;30.108;2023-03-11T08:09:12;100378.06;;;-5.95;47.29
78675;BME280;67990;59.826;30.108;2023-03-11T08:11:39;100379.44;;;-5.25;46.34
78675;BME280;67990;59.826;30.108;2023-03-11T08:14:07;100370.84;;;-4.95;44.86
78675;BME280;67990;59.826;30.108;2023-03-11T08:16:34;100364.84;;;-3.69;41.92
78675;BME280;67990;59.826;30.108;2023-03-11T08:19:02;100347.44;;;-2.73;41.63
78675;BME280;67990;59.826;30.108;2023-03-11T08:21:30;100338.31;;;-0.35;37.25
78675;BME280;67990;59.826;30.108;2023-03-11T08:23:58;100342.03;;;-2.66;37.88
78675;BME280;67990;59.826;30.108;2023-03-11T08:26:26;100336.47;;;-3.66;40.60
78675;BME280;67990;59.826;30.108;2023-03-11T08:28:54;100334.53;;;-3.82;41.65
78675;BME280;67990;59.826;30.108;2023-03-11T08:31:24;100326.88;;;-3.38;42.04
78675;BME280;67990;59.826;30.108;2023-03-11T08:33:52;100319.75;;;-3.08;42.01
78675;BME280;67990;59.826;30.108;2023-03-11T08:36:21;100312.66;;;-2.60;40.97
78675;BME280;67990;59.826;30.108;2023-03-11T08:38:48;100309.16;;;-1.99;40.27
78675;BME280;67990;59.826;30.108;2023-03-11T08:41:16;100314.13;;;-2.15;39.83
78675;BME280;67990;59.826;30.108;2023-03-11T08:43:43;100294.50;;;-2.77;42.00
78675;BME280;67990;59.826;30.108;2023-03-11T08:46:14;100293.47;;;-2.93;41.18
78675;BME280;67990;59.826;30.108;2023-03-11T08:48:43;100296.97;;;-4.08;44.07
78675;BME280;67990;59.826;30.108;2023-03-11T08:51:11;100276.97;;;-3.09;43.13
78675;BME280;67990;59.826;30.108;2023-03-11T08:53:41;100267.16;;;-4.10;44.55
78675;BME280;67990;59.826;30.108;2023-03-11T08:56:08;100270.94;;;-3.97;45.59
78675;BME280;67990;59.826;30.108;2023-03-11T08:58:35;100262.91;;;-4.59;46.89
78675;BME280;67990;59.826;30.108;2023-03-11T09:01:03;100253.16;;;-4.25;45.98
78675;BME280;67990;59.826;30.108;2023-03-11T09:03:30;100248.88;;;-3.78;45.77
78675;BME280;67990;59.826;30.108;2023-03-11T09:05:58;100243.72;;;-4.01;45.47
78675;BME280;67990;59.826;30.108;2023-03-11T09:08:27;100240.84;;;-4.15;45.79
78675;BME280;67990;59.826;30.108;2023-03-11T09:10:55;100228.00;;;-3.48;44.32
78675;BME280;67990;59.826;30.108;2023-03-11T09:13:22;100213.63;;;-3.30;44.03
78675;BME280;67990;59.826;30.108;2023-03-11T09:15:50;100205.84;;;-2.87;44.99
78675;BME280;67990;59.826;30.108;2023-03-11T09:18:18;100208.38;;;-1.90;42.36
78675;BME280;67990;59.826;30.108;2023-03-11T09:20:45;100195.19;;;-2.01;42.52
78675;BME280;67990;59.826;30.108;2023-03-11T09:23:14;100197.59;;;-1.61;42.25
78675;BME280;67990;59.826;30.108;2023-03-11T09:25:42;100198.91;;;-2.08;41.86
78675;BME280;67990;59.826;30.108;2023-03-11T09:28:11;100179.09;;;-1.34;40.78
78675;BME280;67990;59.826;30.108;2023-03-11T09:30:38;100175.75;;;-2.08;41.68
78675;BME280;67990;59.826;30.108;2023-03-11T09:33:05;100165.44;;;-1.02;40.81
78675;BME280;67990;59.826;30.108;2023-03-11T09:35:32;100160.06;;;-0.15;38.14
78675;BME280;67990;59.826;30.108;2023-03-11T09:38:00;100148.44;;;0.70;37.40
78675;BME280;67990;59.826;30.108;2023-03-11T09:40:38;100156.72;;;-1.33;40.28
78675;BME280;67990;59.826;30.108;2023-03-11T09:43:14;100140.09;;;0.80;36.77
78675;BME280;67990;59.826;30.108;2023-03-11T09:45:51;100142.78;;;-0.46;37.32
78675;BME280;67990;59.826;30.108;2023-03-11T09:48:22;100119.84;;;-0.19;38.29
78675;BME280;67990;59.826;30.108;2023-03-11T09:50:58;100124.63;;;-0.77;36.80
78675;BME280;67990;59.826;30.108;2023-03-11T09:53:37;100107.59;;;-1.81;40.81
78675;BME280;67990;59.826;30.108;2023-03-11T09:56:07;100106.78;;;-2.37;42.22
78675;BME280;67990;59.826;30.108;2023-03-11T09:58:38;100094.78;;;-2.18;41.94
78675;BME280;67990;59.826;30.108;2023-03-11T10:01:14;100088.16;;;-2.05;42.35
78675;BME280;67990;59.826;30.108;2023-03-11T10:03:43;100085.13;;;-1.96;41.35
78675;BME280;67990;59.826;30.108;2023-03-11T10:06:14;100067.53;;;-2.22;41.49
78675;BME280;67990;59.826;30.108;2023-03-11T10:08:45;100054.56;;;-2.95;43.55
78675;BME280;67990;59.826;30.108;2023-03-11T10:11:28;100064.91;;;-2.58;42.86
78675;BME280;67990;59.826;30.108;2023-03-11T10:14:08;100061.66;;;-2.26;41.44
78675;BME280;67990;59.826;30.108;2023-03-11T10:16:46;100042.47;;;-1.83;40.87
78675;BME280;67990;59.826;30.108;2023-03-11T10:19:27;100029.00;;;-1.71;40.00
78675;BME280;67990;59.826;30.108;2023-03-11T10:22:03;100034.13;;;-2.05;41.26
78675;BME280;67990;59.826;30.108;2023-03-11T10:24:49;100013.72;;;-1.40;39.73
78675;BME280;67990;59.826;30.108;2023-03-11T10:27:23;100005.38;;;-1.79;40.24
78675;BME280;67990;59.826;30.108;2023-03-11T10:29:59;99994.00;;;-2.45;42.28
78675;BME280;67990;59.826;30.108;2023-03-11T10:32:35;99995.69;;;-2.62;42.03
78675;BME280;67990;59.826;30.108;2023-03-11T10:35:14;99987.28;;;-3.03;43.37
78675;BME280;67990;59.826;30.108;2023-03-11T10:37:45;99968.19;;;-2.97;43.81
78675;BME280;67990;59.826;30.108;2023-03-11T10:40:20;99969.56;;;-2.90;44.04
78675;BME280;67990;59.826;30.108;2023-03-11T10:42:50;99965.69;;;-2.99;45.18
78675;BME280;67990;59.826;30.108;2023-03-11T10:45:20;99960.41;;;-2.96;45.23
78675;BME280;67990;59.826;30.108;2023-03-11T10:47:49;99977.69;;;-3.18;44.64
78675;BME280;67990;59.826;30.108;2023-03-11T10:50:17;99943.81;;;-3.07;45.89
78675;BME280;67990;59.826;30.108;2023-03-11T10:53:03;99931.94;;;-2.91;44.73
78675;BME280;67990;59.826;30.108;2023-03-11T10:55:31;99925.22;;;-2.94;45.11
78675;BME280;67990;59.826;30.108;2023-03-11T10:58:04;99915.59;;;-2.90;45.68
78675;BME280;67990;59.826;30.108;2023-03-11T11:00:33;99904.72;;;-2.95;45.41
78675;BME280;67990;59.826;30.108;2023-03-11T11:03:01;99900.91;;;-2.87;46.46
78675;BME280;67990;59.826;30.108;2023-03-11T11:05:30;99897.63;;;-2.90;46.65
78675;BME280;67990;59.826;30.108;2023-03-11T11:08:04;99895.00;;;-3.07;46.19
78675;BME280;67990;59.826;30.108;2023-03-11T11:10:32;99865.50;;;-2.99;46.86
78675;BME280;67990;59.826;30.108;2023-03-11T11:13:02;99862.38;;;-2.87;47.05
78675;BME280;67990;59.826;30.108;2023-03-11T11:15:40;99869.09;;;-2.84;45.76
78675;BME280;67990;59.826;30.108;2023-03-11T11:18:17;99849.88;;;-2.77;46.42
78675;BME280;67990;59.826;30.108;2023-03-11T11:20:53;99835.38;;;-2.78;45.83
78675;BME280;67990;59.826;30.108;2023-03-11T11:23:26;99820.81;;;-2.78;47.19
78675;BME280;67990;59.826;30.108;2023-03-11T11:25:56;99805.13;;;-2.90;46.23
78675;BME280;67990;59.826;30.108;2023-03-11T11:28:24;99794.13;;;-2.75;46.44
78675;BME280;67990;59.826;30.108;2023-03-11T11:30:54;99777.03;;;-2.93;46.33
78675;BME280;67990;59.826;30.108;2023-03-11T11:33:25;99776.84;;;-3.07;46.59
78675;BME280;67990;59.826;30.108;2023-03-11T11:35:57;99777.63;;;-3.05;47.59
78675;BME280;67990;59.826;30.108;2023-03-11T11:38:27;99758.22;;;-2.94;47.99
78675;BME280;67990;59.826;30.108;2023-03-11T11:40:56;99766.00;;;-2.78;48.13
78675;BME280;67990;59.826;30.108;2023-03-11T11:43:39;99758.75;;;-2.70;48.16
78675;BME280;67990;59.826;30.108;2023-03-11T11:46:17;99750.13;;;-2.86;48.14
78675;BME280;67990;59.826;30.108;2023-03-11T11:48:52;99742.72;;;-2.75;47.94
78675;BME280;67990;59.826;30.108;2023-03-11T11:51:24;99754.91;;;-2.79;48.02
78675;BME280;67990;59.826;30.108;2023-03-11T11:53:58;99739.91;;;-2.88;47.75
78675;BME280;67990;59.826;30.108;2023-03-11T11:56:27;99734.88;;;-2.89;48.58
78675;BME280;67990;59.826;30.108;2023-03-11T11:58:54;99724.16;;;-2.80;48.94
78675;BME280;67990;59.826;30.108;2023-03-11T12:01:33;99717.50;;;-2.84;48.41
78675;BME280;67990;59.826;30.108;2023-03-11T12:04:31;99716.38;;;-2.79;49.46
78675;BME280;67990;59.826;30.108;2023-03-11T12:07:28;99707.91;;;-2.98;49.44
78675;BME280;67990;59.826;30.108;2023-03-11T12:10:09;99704.41;;;-2.97;49.57
78675;BME280;67990;59.826;30.108;2023-03-11T12:12:47;99701.78;;;-3.12;49.40
78675;BME280;67990;59.826;30.108;2023-03-11T12:15:19;99703.88;;;-3.03;50.21
78675;BME280;67990;59.826;30.108;2023-03-11T12:17:51;99677.28;;;-3.02;50.75
78675;BME280;67990;59.826;30.108;2023-03-11T12:20:24;99698.00;;;-3.05;50.61
78675;BME280;67990;59.826;30.108;2023-03-11T12:23:16;99674.94;;;-2.90;49.90
78675;BME280;67990;59.826;30.108;2023-03-11T12:25:58;99669.16;;;-2.93;50.41
78675;BME280;67990;59.826;30.108;2023-03-11T12:28:36;99656.91;;;-2.88;51.58
78675;BME280;67990;59.826;30.108;2023-03-11T12:31:06;99648.72;;;-2.79;51.55
78675;BME280;67990;59.826;30.108;2023-03-11T12:33:37;99635.06;;;-2.97;51.73
78675;BME280;67990;59.826;30.108;2023-03-11T12:36:07;99648.63;;;-2.78;52.33
78675;BME280;67990;59.826;30.108;2023-03-11T12:38:46;99645.03;;;-2.91;52.02
78675;BME280;67990;59.826;30.108;2023-03-11T12:41:30;99638.00;;;-2.87;51.84
78675;BME280;67990;59.826;30.108;2023-03-11T12:44:00;99643.19;;;-2.89;52.09
78675;BME280;67990;59.826;30.108;2023-03-11T12:46:58;99626.97;;;-2.89;52.53
78675;BME280;67990;59.826;30.108;2023-03-11T12:49:28;99626.78;;;-2.86;52.87
78675;BME280;67990;59.826;30.108;2023-03-11T12:52:00;99621.06;;;-2.59;52.59
78675;BME280;67990;59.826;30.108;2023-03-11T12:54:29;99617.50;;;-2.89;52.93